sensor_id;sensor_type;location;lat;lon;timestamp;P1;durP1;ratioP1;P2;durP2;ratioP2
72939;SDS011;61094;51.154;13.570;2023-04-25T00:02:10;6.85;;;2.45;;
72939;SDS011;61094;51.154;13.570;2023-04-25T00:07:13;6.00;;;2.13;;
72939;SDS011;61094;51.154;13.570;2023-04-25T00:12:15;6.55;;;2.08;;
72939;SDS011;61094;51.154;13.570;2023-04-25T00:17:18;7.57;;;2.15;;
72939;SDS011;61094;51.154;13.570;2023-04-25T00:22:20;5.45;;;2.00;;
72939;SDS011;61094;51.154;13.570;2023-04-25T00:27:22;8.35;;;2.15;;
72939;SDS011;61094;51.154;13.570;2023-04-25T00:32:25;5.55;;;1.90;;
72939;SDS011;61094;51.154;13.570;2023-04-25T00:37:26;7.60;;;2.47;;
72939;SDS011;61094;51.154;13.570;2023-04-25T00:42:28;5.63;;;2.10;;
72939;SDS011;61094;51.154;13.570;2023-04-25T00:47:32;5.20;;;1.80;;
72939;SDS011;61094;51.154;13.570;2023-04-25T00:52:34;6.13;;;2.10;;
72939;SDS011;61094;51.154;13.570;2023-04-25T00:57:36;5.05;;;2.15;;
72939;SDS011;61094;51.154;13.570;2023-04-25T01:02:40;9.85;;;3.38;;
72939;SDS011;61094;51.154;13.570;2023-04-25T01:07:42;7.22;;;2.10;;
72939;SDS011;61094;51.154;13.570;2023-04-25T01:12:45;6.35;;;2.22;;
72939;SDS011;61094;51.154;13.570;2023-04-25T01:17:48;7.18;;;2.70;;
72939;SDS011;61094;51.154;13.570;2023-04-25T01:22:51;7.43;;;2.25;;
72939;SDS011;61094;51.154;13.570;2023-04-25T01:27:54;6.55;;;2.08;;
72939;SDS011;61094;51.154;13.570;2023-04-25T01:32:57;7.20;;;2.33;;
72939;SDS011;61094;51.154;13.570;2023-04-25T01:38:01;6.70;;;2.10;;
72939;SDS011;61094;51.154;13.570;2023-04-25T01:43:03;7.25;;;2.30;;
72939;SDS011;61094;51.154;13.570;2023-04-25T01:48:04;7.97;;;3.28;;
72939;SDS011;61094;51.154;13.570;2023-04-25T01:53:08;7.30;;;2.00;;
72939;SDS011;61094;51.154;13.570;2023-04-25T01:58:10;6.85;;;2.92;;
72939;SDS011;61094;51.154;13.570;2023-04-25T02:03:45;6.85;;;2.70;;
72939;SDS011;61094;51.154;13.570;2023-04-25T02:14:34;9.07;;;2.80;;
72939;SDS011;61094;51.154;13.570;2023-04-25T02:20:23;7.10;;;2.65;;
72939;SDS011;61094;51.154;13.570;2023-04-25T02:25:49;7.78;;;2.67;;
72939;SDS011;61094;51.154;13.570;2023-04-25T02:30:51;6.85;;;2.67;;
72939;SDS011;61094;51.154;13.570;2023-04-25T02:35:53;7.60;;;2.60;;
72939;SDS011;61094;51.154;13.570;2023-04-25T02:46:10;6.75;;;2.60;;
72939;SDS011;61094;51.154;13.570;2023-04-25T02:51:13;6.72;;;2.72;;
72939;SDS011;61094;51.154;13.570;2023-04-25T02:56:16;6.57;;;2.67;;
72939;SDS011;61094;51.154;13.570;2023-04-25T03:01:20;7.68;;;2.90;;
72939;SDS011;61094;51.154;13.570;2023-04-25T03:06:22;8.38;;;2.63;;
72939;SDS011;61094;51.154;13.570;2023-04-25T03:11:24;5.95;;;2.30;;
72939;SDS011;61094;51.154;13.570;2023-04-25T03:16:28;7.00;;;2.38;;
72939;SDS011;61094;51.154;13.570;2023-04-25T03:21:31;9.13;;;3.05;;
72939;SDS011;61094;51.154;13.570;2023-04-25T03:26:34;8.65;;;3.35;;
72939;SDS011;61094;51.154;13.570;2023-04-25T03:31:37;9.35;;;2.80;;
72939;SDS011;61094;51.154;13.570;2023-04-25T03:36:39;11.82;;;3.53;;
72939;SDS011;61094;51.154;13.570;2023-04-25T03:41:41;8.02;;;3.22;;
72939;SDS011;61094;51.154;13.570;2023-04-25T03:46:48;7.70;;;3.28;;
72939;SDS011;61094;51.154;13.570;2023-04-25T03:51:50;7.88;;;3.33;;
72939;SDS011;61094;51.154;13.570;2023-04-25T03:56:52;7.38;;;2.70;;
72939;SDS011;61094;51.154;13.570;2023-04-25T04:01:58;8.13;;;2.85;;
72939;SDS011;61094;51.154;13.570;2023-04-25T04:07:00;8.00;;;2.70;;
72939;SDS011;61094;51.154;13.570;2023-04-25T04:12:05;8.95;;;3.40;;
72939;SDS011;61094;51.154;13.570;2023-04-25T04:17:10;9.75;;;3.53;;
72939;SDS011;61094;51.154;13.570;2023-04-25T04:22:12;8.65;;;3.33;;
72939;SDS011;61094;51.154;13.570;2023-04-25T04:27:15;10.20;;;4.00;;
72939;SDS011;61094;51.154;13.570;2023-04-25T04:32:35;9.52;;;3.75;;
72939;SDS011;61094;51.154;13.570;2023-04-25T04:37:39;9.07;;;3.65;;
72939;SDS011;61094;51.154;13.570;2023-04-25T04:42:43;17.52;;;6.30;;
72939;SDS011;61094;51.154;13.570;2023-04-25T04:47:58;12.50;;;4.30;;
72939;SDS011;61094;51.154;13.570;2023-04-25T04:53:20;10.07;;;3.58;;
72939;SDS011;61094;51.154;13.570;2023-04-25T04:58:41;11.50;;;3.65;;
72939;SDS011;61094;51.154;13.570;2023-04-25T05:03:58;11.30;;;4.18;;
72939;SDS011;61094;51.154;13.570;2023-04-25T05:09:19;8.88;;;3.30;;
72939;SDS011;61094;51.154;13.570;2023-04-25T05:14:39;12.68;;;3.03;;
72939;SDS011;61094;51.154;13.570;2023-04-25T05:20:08;7.95;;;2.88;;
72939;SDS011;61094;51.154;13.570;2023-04-25T05:25:30;11.27;;;3.92;;
72939;SDS011;61094;51.154;13.570;2023-04-25T05:30:49;7.97;;;2.85;;
72939;SDS011;61094;51.154;13.570;2023-04-25T05:36:05;11.45;;;3.92;;
72939;SDS011;61094;51.154;13.570;2023-04-25T05:41:10;7.90;;;3.42;;
72939;SDS011;61094;51.154;13.570;2023-04-25T05:46:18;7.82;;;2.90;;
72939;SDS011;61094;51.154;13.570;2023-04-25T05:51:42;9.43;;;3.28;;
72939;SDS011;61094;51.154;13.570;2023-04-25T05:57:02;11.25;;;3.33;;
72939;SDS011;61094;51.154;13.570;2023-04-25T06:02:04;9.20;;;3.85;;
72939;SDS011;61094;51.154;13.570;2023-04-25T06:07:10;10.93;;;2.58;;
72939;SDS011;61094;51.154;13.570;2023-04-25T06:17:16;17.73;;;5.40;;
72939;SDS011;61094;51.154;13.570;2023-04-25T06:22:24;9.23;;;3.45;;
72939;SDS011;61094;51.154;13.570;2023-04-25T06:27:27;10.38;;;3.50;;
72939;SDS011;61094;51.154;13.570;2023-04-25T06:32:30;12.70;;;3.72;;
72939;SDS011;61094;51.154;13.570;2023-04-25T06:37:35;9.18;;;3.30;;
72939;SDS011;61094;51.154;13.570;2023-04-25T06:42:39;7.75;;;3.15;;
72939;SDS011;61094;51.154;13.570;2023-04-25T06:47:59;8.13;;;3.30;;
72939;SDS011;61094;51.154;13.570;2023-04-25T06:53:04;12.10;;;2.92;;
72939;SDS011;61094;51.154;13.570;2023-04-25T06:58:10;12.55;;;3.50;;
72939;SDS011;61094;51.154;13.570;2023-04-25T07:03:26;8.15;;;3.13;;
72939;SDS011;61094;51.154;13.570;2023-04-25T07:08:35;8.82;;;3.15;;
72939;SDS011;61094;51.154;13.570;2023-04-25T07:13:37;9.15;;;3.28;;
72939;SDS011;61094;51.154;13.570;2023-04-25T07:18:41;9.38;;;2.88;;
72939;SDS011;61094;51.154;13.570;2023-04-25T07:23:45;11.73;;;3.60;;
72939;SDS011;61094;51.154;13.570;2023-04-25T07:28:51;7.78;;;3.05;;
72939;SDS011;61094;51.154;13.570;2023-04-25T07:33:52;9.93;;;3.28;;
72939;SDS011;61094;51.154;13.570;2023-04-25T07:38:56;8.18;;;2.65;;
72939;SDS011;61094;51.154;13.570;2023-04-25T07:43:57;9.93;;;3.28;;
72939;SDS011;61094;51.154;13.570;2023-04-25T07:49:00;9.80;;;2.88;;
72939;SDS011;61094;51.154;13.570;2023-04-25T07:54:03;7.03;;;2.42;;
72939;SDS011;61094;51.154;13.570;2023-04-25T07:59:07;7.97;;;3.00;;
72939;SDS011;61094;51.154;13.570;2023-04-25T08:04:09;7.25;;;2.50;;
72939;SDS011;61094;51.154;13.570;2023-04-25T08:09:24;8.93;;;2.50;;
72939;SDS011;61094;51.154;13.570;2023-04-25T08:14:27;11.88;;;4.40;;
72939;SDS011;61094;51.154;13.570;2023-04-25T08:19:29;11.60;;;3.35;;
72939;SDS011;61094;51.154;13.570;2023-04-25T08:24:33;8.85;;;2.80;;
72939;SDS011;61094;51.154;13.570;2023-04-25T08:29:35;10.23;;;2.83;;
72939;SDS011;61094;51.154;13.570;2023-04-25T08:34:37;6.32;;;2.50;;
72939;SDS011;61094;51.154;13.570;2023-04-25T08:39:44;9.35;;;3.30;;
72939;SDS011;61094;51.154;13.570;2023-04-25T08:45:07;5.45;;;2.58;;
72939;SDS011;61094;51.154;13.570;2023-04-25T08:50:12;7.22;;;2.55;;
72939;SDS011;61094;51.154;13.570;2023-04-25T08:55:15;7.72;;;2.63;;
72939;SDS011;61094;51.154;13.570;2023-04-25T09:00:18;11.45;;;3.03;;
72939;SDS011;61094;51.154;13.570;2023-04-25T09:10:44;6.53;;;2.38;;
72939;SDS011;61094;51.154;13.570;2023-04-25T09:15:47;5.55;;;2.30;;
72939;SDS011;61094;51.154;13.570;2023-04-25T09:21:10;10.13;;;2.20;;
72939;SDS011;61094;51.154;13.570;2023-04-25T09:26:14;6.70;;;1.88;;
72939;SDS011;61094;51.154;13.570;2023-04-25T09:31:21;7.53;;;1.88;;
72939;SDS011;61094;51.154;13.570;2023-04-25T09:36:25;6.63;;;2.20;;
72939;SDS011;61094;51.154;13.570;2023-04-25T09:41:48;6.13;;;2.10;;
72939;SDS011;61094;51.154;13.570;2023-04-25T09:46:56;5.32;;;1.80;;
72939;SDS011;61094;51.154;13.570;2023-04-25T09:52:00;6.07;;;2.35;;
72939;SDS011;61094;51.154;13.570;2023-04-25T09:57:15;7.45;;;2.72;;
72939;SDS011;61094;51.154;13.570;2023-04-25T10:02:18;8.85;;;2.47;;
72939;SDS011;61094;51.154;13.570;2023-04-25T10:07:25;9.27;;;3.00;;
72939;SDS011;61094;51.154;13.570;2023-04-25T10:12:31;8.45;;;2.80;;
72939;SDS011;61094;51.154;13.570;2023-04-25T10:17:34;7.72;;;2.63;;
72939;SDS011;61094;51.154;13.570;2023-04-25T10:22:37;7.35;;;2.85;;
72939;SDS011;61094;51.154;13.570;2023-04-25T10:27:44;9.25;;;2.60;;
72939;SDS011;61094;51.154;13.570;2023-04-25T10:32:46;6.90;;;2.95;;
72939;SDS011;61094;51.154;13.570;2023-04-25T10:37:57;8.40;;;3.35;;
72939;SDS011;61094;51.154;13.570;2023-04-25T10:48:38;10.45;;;3.38;;
72939;SDS011;61094;51.154;13.570;2023-04-25T10:53:56;10.02;;;2.42;;
72939;SDS011;61094;51.154;13.570;2023-04-25T10:59:04;5.18;;;1.95;;
72939;SDS011;61094;51.154;13.570;2023-04-25T11:04:19;8.15;;;2.25;;
72939;SDS011;61094;51.154;13.570;2023-04-25T11:09:23;3.67;;;1.30;;
72939;SDS011;61094;51.154;13.570;2023-04-25T11:14:27;4.72;;;1.17;;
72939;SDS011;61094;51.154;13.570;2023-04-25T11:19:29;4.30;;;1.20;;
72939;SDS011;61094;51.154;13.570;2023-04-25T11:24:32;6.95;;;1.42;;
72939;SDS011;61094;51.154;13.570;2023-04-25T11:29:37;3.88;;;1.20;;
72939;SDS011;61094;51.154;13.570;2023-04-25T11:34:39;9.60;;;1.63;;
72939;SDS011;61094;51.154;13.570;2023-04-25T11:39:45;11.35;;;2.22;;
72939;SDS011;61094;51.154;13.570;2023-04-25T11:44:48;6.20;;;1.70;;
72939;SDS011;61094;51.154;13.570;2023-04-25T11:49:52;5.82;;;1.50;;
72939;SDS011;61094;51.154;13.570;2023-04-25T11:54:54;5.75;;;1.60;;
72939;SDS011;61094;51.154;13.570;2023-04-25T12:05:13;7.78;;;1.83;;
72939;SDS011;61094;51.154;13.570;2023-04-25T12:10:17;9.95;;;2.10;;
72939;SDS011;61094;51.154;13.570;2023-04-25T12:15:24;11.82;;;2.00;;
72939;SDS011;61094;51.154;13.570;2023-04-25T12:20:26;9.43;;;2.42;;
72939;SDS011;61094;51.154;13.570;2023-04-25T12:25:34;11.82;;;2.60;;
72939;SDS011;61094;51.154;13.570;2023-04-25T12:30:55;9.50;;;2.15;;
72939;SDS011;61094;51.154;13.570;2023-04-25T12:35:58;6.30;;;2.15;;
72939;SDS011;61094;51.154;13.570;2023-04-25T12:41:03;7.80;;;2.67;;
72939;SDS011;61094;51.154;13.570;2023-04-25T12:46:07;7.25;;;2.22;;
72939;SDS011;61094;51.154;13.570;2023-04-25T12:51:08;11.07;;;2.33;;
72939;SDS011;61094;51.154;13.570;2023-04-25T12:56:10;6.55;;;2.30;;
72939;SDS011;61094;51.154;13.570;2023-04-25T13:01:13;9.45;;;2.28;;
72939;SDS011;61094;51.154;13.570;2023-04-25T13:06:15;15.82;;;2.95;;
72939;SDS011;61094;51.154;13.570;2023-04-25T13:11:20;8.25;;;2.30;;
72939;SDS011;61094;51.154;13.570;2023-04-25T13:16:24;9.43;;;2.20;;
72939;SDS011;61094;51.154;13.570;2023-04-25T13:21:25;9.20;;;2.65;;
72939;SDS011;61094;51.154;13.570;2023-04-25T13:26:27;12.60;;;2.90;;
72939;SDS011;61094;51.154;13.570;2023-04-25T13:31:30;8.52;;;2.28;;
72939;SDS011;61094;51.154;13.570;2023-04-25T13:36:32;9.07;;;2.40;;
72939;SDS011;61094;51.154;13.570;2023-04-25T13:41:34;19.33;;;7.57;;
72939;SDS011;61094;51.154;13.570;2023-04-25T13:46:38;13.02;;;2.47;;
72939;SDS011;61094;51.154;13.570;2023-04-25T13:51:40;9.32;;;2.60;;
72939;SDS011;61094;51.154;13.570;2023-04-25T13:56:42;8.15;;;1.88;;
72939;SDS011;61094;51.154;13.570;2023-04-25T14:01:45;13.07;;;2.97;;
72939;SDS011;61094;51.154;13.570;2023-04-25T14:06:47;9.90;;;2.42;;
72939;SDS011;61094;51.154;13.570;2023-04-25T14:11:49;12.70;;;2.40;;
72939;SDS011;61094;51.154;13.570;2023-04-25T14:16:52;8.30;;;2.35;;
72939;SDS011;61094;51.154;13.570;2023-04-25T14:21:55;11.88;;;2.35;;
72939;SDS011;61094;51.154;13.570;2023-04-25T14:27:02;9.07;;;2.28;;
72939;SDS011;61094;51.154;13.570;2023-04-25T14:32:05;8.05;;;2.38;;
72939;SDS011;61094;51.154;13.570;2023-04-25T14:37:07;6.55;;;2.10;;
72939;SDS011;61094;51.154;13.570;2023-04-25T14:42:09;7.03;;;1.67;;
72939;SDS011;61094;51.154;13.570;2023-04-25T14:47:12;8.27;;;1.70;;
72939;SDS011;61094;51.154;13.570;2023-04-25T14:52:15;5.60;;;1.58;;
72939;SDS011;61094;51.154;13.570;2023-04-25T14:57:17;5.03;;;1.45;;
72939;SDS011;61094;51.154;13.570;2023-04-25T15:02:21;9.38;;;2.50;;
72939;SDS011;61094;51.154;13.570;2023-04-25T15:07:23;7.50;;;1.42;;
72939;SDS011;61094;51.154;13.570;2023-04-25T15:12:24;3.63;;;1.05;;
72939;SDS011;61094;51.154;13.570;2023-04-25T15:17:29;6.90;;;1.63;;
72939;SDS011;61094;51.154;13.570;2023-04-25T15:22:31;10.23;;;1.75;;
72939;SDS011;61094;51.154;13.570;2023-04-25T15:27:33;4.63;;;1.27;;
72939;SDS011;61094;51.154;13.570;2023-04-25T15:32:39;4.32;;;1.23;;
72939;SDS011;61094;51.154;13.570;2023-04-25T15:37:41;11.35;;;2.20;;
72939;SDS011;61094;51.154;13.570;2023-04-25T15:42:43;6.25;;;1.52;;
72939;SDS011;61094;51.154;13.570;2023-04-25T15:47:58;7.22;;;1.90;;
72939;SDS011;61094;51.154;13.570;2023-04-25T15:53:01;6.63;;;1.85;;
72939;SDS011;61094;51.154;13.570;2023-04-25T15:58:04;8.95;;;1.50;;
72939;SDS011;61094;51.154;13.570;2023-04-25T16:03:10;10.02;;;1.83;;
72939;SDS011;61094;51.154;13.570;2023-04-25T16:08:12;5.30;;;1.48;;
72939;SDS011;61094;51.154;13.570;2023-04-25T16:13:14;5.20;;;1.65;;
72939;SDS011;61094;51.154;13.570;2023-04-25T16:18:17;4.07;;;1.30;;
72939;SDS011;61094;51.154;13.570;2023-04-25T16:23:19;3.90;;;1.17;;
72939;SDS011;61094;51.154;13.570;2023-04-25T16:28:21;4.65;;;1.23;;
72939;SDS011;61094;51.154;13.570;2023-04-25T16:33:24;5.25;;;1.40;;
72939;SDS011;61094;51.154;13.570;2023-04-25T16:38:26;3.20;;;1.10;;
72939;SDS011;61094;51.154;13.570;2023-04-25T16:43:28;4.32;;;1.40;;
72939;SDS011;61094;51.154;13.570;2023-04-25T16:48:32;5.65;;;1.08;;
72939;SDS011;61094;51.154;13.570;2023-04-25T16:53:34;7.07;;;1.65;;
72939;SDS011;61094;51.154;13.570;2023-04-25T16:58:37;6.75;;;1.50;;
72939;SDS011;61094;51.154;13.570;2023-04-25T17:03:40;10.10;;;2.10;;
72939;SDS011;61094;51.154;13.570;2023-04-25T17:08:42;7.00;;;1.33;;
72939;SDS011;61094;51.154;13.570;2023-04-25T17:13:46;6.90;;;1.10;;
72939;SDS011;61094;51.154;13.570;2023-04-25T17:18:49;6.50;;;2.00;;
72939;SDS011;61094;51.154;13.570;2023-04-25T17:23:51;3.65;;;1.20;;
72939;SDS011;61094;51.154;13.570;2023-04-25T17:28:53;4.90;;;2.03;;
72939;SDS011;61094;51.154;13.570;2023-04-25T17:33:58;7.00;;;1.50;;
72939;SDS011;61094;51.154;13.570;2023-04-25T17:39:00;3.28;;;1.08;;
72939;SDS011;61094;51.154;13.570;2023-04-25T17:44:05;8.10;;;2.03;;
72939;SDS011;61094;51.154;13.570;2023-04-25T17:49:08;6.80;;;1.67;;
72939;SDS011;61094;51.154;13.570;2023-04-25T17:54:10;8.60;;;1.80;;
72939;SDS011;61094;51.154;13.570;2023-04-25T17:59:13;6.05;;;2.03;;
72939;SDS011;61094;51.154;13.570;2023-04-25T18:04:16;7.28;;;1.58;;
72939;SDS011;61094;51.154;13.570;2023-04-25T18:14:22;10.25;;;1.52;;
72939;SDS011;61094;51.154;13.570;2023-04-25T18:19:26;5.93;;;1.67;;
72939;SDS011;61094;51.154;13.570;2023-04-25T18:24:28;9.18;;;1.85;;
72939;SDS011;61094;51.154;13.570;2023-04-25T18:29:30;5.93;;;1.60;;
72939;SDS011;61094;51.154;13.570;2023-04-25T18:34:33;8.45;;;1.92;;
72939;SDS011;61094;51.154;13.570;2023-04-25T18:39:35;5.38;;;1.70;;
72939;SDS011;61094;51.154;13.570;2023-04-25T18:44:37;6.07;;;1.90;;
72939;SDS011;61094;51.154;13.570;2023-04-25T18:49:41;11.63;;;2.20;;
72939;SDS011;61094;51.154;13.570;2023-04-25T18:54:43;7.10;;;1.35;;
72939;SDS011;61094;51.154;13.570;2023-04-25T18:59:45;4.18;;;1.65;;
72939;SDS011;61094;51.154;13.570;2023-04-25T19:04:49;9.50;;;1.70;;
72939;SDS011;61094;51.154;13.570;2023-04-25T19:09:51;8.38;;;1.65;;
72939;SDS011;61094;51.154;13.570;2023-04-25T19:14:53;10.63;;;2.00;;
72939;SDS011;61094;51.154;13.570;2023-04-25T19:19:56;14.27;;;4.28;;
72939;SDS011;61094;51.154;13.570;2023-04-25T19:30:00;7.70;;;2.67;;
72939;SDS011;61094;51.154;13.570;2023-04-25T19:35:08;9.18;;;2.20;;
72939;SDS011;61094;51.154;13.570;2023-04-25T19:40:11;4.85;;;1.65;;
72939;SDS011;61094;51.154;13.570;2023-04-25T19:45:13;5.25;;;1.75;;
72939;SDS011;61094;51.154;13.570;2023-04-25T19:50:17;5.45;;;1.67;;
72939;SDS011;61094;51.154;13.570;2023-04-25T19:55:18;8.30;;;1.65;;
72939;SDS011;61094;51.154;13.570;2023-04-25T20:00:21;6.60;;;1.60;;
72939;SDS011;61094;51.154;13.570;2023-04-25T20:05:24;4.68;;;1.30;;
72939;SDS011;61094;51.154;13.570;2023-04-25T20:10:26;8.13;;;1.65;;
72939;SDS011;61094;51.154;13.570;2023-04-25T20:15:28;12.75;;;3.72;;
72939;SDS011;61094;51.154;13.570;2023-04-25T20:20:32;12.60;;;4.20;;
72939;SDS011;61094;51.154;13.570;2023-04-25T20:25:34;8.07;;;2.33;;
72939;SDS011;61094;51.154;13.570;2023-04-25T20:30:35;6.28;;;1.50;;
72939;SDS011;61094;51.154;13.570;2023-04-25T20:35:39;5.78;;;1.35;;
72939;SDS011;61094;51.154;13.570;2023-04-25T20:40:40;7.63;;;1.35;;
72939;SDS011;61094;51.154;13.570;2023-04-25T20:45:42;6.22;;;1.30;;
72939;SDS011;61094;51.154;13.570;2023-04-25T20:50:45;4.85;;;0.90;;
72939;SDS011;61094;51.154;13.570;2023-04-25T20:55:47;4.90;;;1.48;;
72939;SDS011;61094;51.154;13.570;2023-04-25T21:00:49;8.95;;;1.48;;
72939;SDS011;61094;51.154;13.570;2023-04-25T21:05:53;5.85;;;1.10;;
72939;SDS011;61094;51.154;13.570;2023-04-25T21:10:55;2.38;;;0.68;;
72939;SDS011;61094;51.154;13.570;2023-04-25T21:15:57;5.75;;;1.20;;
72939;SDS011;61094;51.154;13.570;2023-04-25T21:21:06;5.50;;;1.00;;
72939;SDS011;61094;51.154;13.570;2023-04-25T21:26:14;6.32;;;1.20;;
72939;SDS011;61094;51.154;13.570;2023-04-25T21:31:16;5.43;;;1.33;;
72939;SDS011;61094;51.154;13.570;2023-04-25T21:36:20;5.20;;;1.63;;
72939;SDS011;61094;51.154;13.570;2023-04-25T21:41:22;8.27;;;2.08;;
72939;SDS011;61094;51.154;13.570;2023-04-25T21:46:25;11.20;;;2.97;;
72939;SDS011;61094;51.154;13.570;2023-04-25T21:51:29;12.13;;;2.67;;
72939;SDS011;61094;51.154;13.570;2023-04-25T21:56:45;14.82;;;4.03;;
72939;SDS011;61094;51.154;13.570;2023-04-25T22:01:47;17.38;;;4.50;;
72939;SDS011;61094;51.154;13.570;2023-04-25T22:06:50;7.53;;;1.70;;
72939;SDS011;61094;51.154;13.570;2023-04-25T22:11:52;4.00;;;1.60;;
72939;SDS011;61094;51.154;13.570;2023-04-25T22:16:54;6.45;;;1.80;;
72939;SDS011;61094;51.154;13.570;2023-04-25T22:21:57;9.23;;;2.00;;
72939;SDS011;61094;51.154;13.570;2023-04-25T22:26:58;7.32;;;2.78;;
72939;SDS011;61094;51.154;13.570;2023-04-25T22:32:01;11.38;;;2.50;;
72939;SDS011;61094;51.154;13.570;2023-04-25T22:37:04;10.13;;;1.88;;
72939;SDS011;61094;51.154;13.570;2023-04-25T22:42:06;8.73;;;2.20;;
72939;SDS011;61094;51.154;13.570;2023-04-25T22:47:08;3.20;;;1.27;;
72939;SDS011;61094;51.154;13.570;2023-04-25T22:52:11;5.63;;;1.48;;
72939;SDS011;61094;51.154;13.570;2023-04-25T22:57:12;5.05;;;1.33;;
72939;SDS011;61094;51.154;13.570;2023-04-25T23:02:15;5.00;;;1.48;;
72939;SDS011;61094;51.154;13.570;2023-04-25T23:07:19;7.28;;;1.77;;
72939;SDS011;61094;51.154;13.570;2023-04-25T23:12:21;4.47;;;1.08;;
72939;SDS011;61094;51.154;13.570;2023-04-25T23:17:22;4.40;;;1.05;;
72939;SDS011;61094;51.154;13.570;2023-04-25T23:22:26;3.35;;;1.15;;
72939;SDS011;61094;51.154;13.570;2023-04-25T23:27:27;8.20;;;1.70;;
72939;SDS011;61094;51.154;13.570;2023-04-25T23:32:29;3.70;;;1.27;;
72939;SDS011;61094;51.154;13.570;2023-04-25T23:37:33;4.40;;;1.08;;
72939;SDS011;61094;51.154;13.570;2023-04-25T23:42:36;5.22;;;1.40;;
72939;SDS011;61094;51.154;13.570;2023-04-25T23:47:38;5.35;;;1.33;;
72939;SDS011;61094;51.154;13.570;2023-04-25T23:52:41;6.38;;;1.45;;
72939;SDS011;61094;51.154;13.570;2023-04-25T23:57:43;4.78;;;1.50;;
